sensor_id;sensor_type;location;lat;lon;timestamp;temperature;humidity
11965;DHT22;6042;41.326;19.826;2023-12-20T00:01:30;8.20;99.90
11965;DHT22;6042;41.326;19.826;2023-12-20T00:03:59;7.90;99.90
11965;DHT22;6042;41.326;19.826;2023-12-20T00:06:31;7.90;99.90
11965;DHT22;6042;41.326;19.826;2023-12-20T00:09:00;8.00;99.90
11965;DHT22;6042;41.326;19.826;2023-12-20T00:11:29;8.00;99.90
11965;DHT22;6042;41.326;19.826;2023-12-20T00:13:58;8.00;99.90
11965;DHT22;6042;41.326;19.826;2023-12-20T00:16:29;8.00;99.90
11965;DHT22;6042;41.326;19.826;2023-12-20T00:18:59;7.90;99.90
11965;DHT22;6042;41.326;19.826;2023-12-20T00:21:28;8.00;99.90
11965;DHT22;6042;41.326;19.826;2023-12-20T00:23:57;7.90;99.90
11965;DHT22;6042;41.326;19.826;2023-12-20T00:26:26;7.90;99.90
11965;DHT22;6042;41.326;19.826;2023-12-20T00:28:56;7.90;99.90
11965;DHT22;6042;41.326;19.826;2023-12-20T00:31:25;7.90;99.90
11965;DHT22;6042;41.326;19.826;2023-12-20T00:33:58;7.90;99.90
11965;DHT22;6042;41.326;19.826;2023-12-20T00:36:28;7.80;99.90
11965;DHT22;6042;41.326;19.826;2023-12-20T00:38:57;7.70;99.90
11965;DHT22;6042;41.326;19.826;2023-12-20T00:41:25;7.60;99.90
11965;DHT22;6042;41.326;19.826;2023-12-20T00:43:54;7.50;99.90
11965;DHT22;6042;41.326;19.826;2023-12-20T00:46:23;7.50;99.90
11965;DHT22;6042;41.326;19.826;2023-12-20T00:48:52;7.40;99.90
11965;DHT22;6042;41.326;19.826;2023-12-20T00:51:23;7.40;99.90
11965;DHT22;6042;41.326;19.826;2023-12-20T00:53:52;7.30;99.90
11965;DHT22;6042;41.326;19.826;2023-12-20T00:56:22;7.30;99.90
11965;DHT22;6042;41.326;19.826;2023-12-20T00:58:54;7.50;99.90
11965;DHT22;6042;41.326;19.826;2023-12-20T01:01:25;7.40;99.90
11965;DHT22;6042;41.326;19.826;2023-12-20T01:03:54;7.40;99.90
11965;DHT22;6042;41.326;19.826;2023-12-20T01:06:25;7.30;99.90
11965;DHT22;6042;41.326;19.826;2023-12-20T01:08:53;7.40;99.90
11965;DHT22;6042;41.326;19.826;2023-12-20T01:11:22;7.40;99.90
11965;DHT22;6042;41.326;19.826;2023-12-20T01:13:54;7.20;99.90
11965;DHT22;6042;41.326;19.826;2023-12-20T01:16:24;7.20;99.90
11965;DHT22;6042;41.326;19.826;2023-12-20T01:18:54;7.30;99.90
11965;DHT22;6042;41.326;19.826;2023-12-20T01:21:24;7.30;99.90
11965;DHT22;6042;41.326;19.826;2023-12-20T01:23:53;7.30;99.90
11965;DHT22;6042;41.326;19.826;2023-12-20T01:26:22;7.40;99.90
11965;DHT22;6042;41.326;19.826;2023-12-20T01:28:51;7.30;99.90
11965;DHT22;6042;41.326;19.826;2023-12-20T01:31:20;7.30;99.90
11965;DHT22;6042;41.326;19.826;2023-12-20T01:33:50;7.20;99.90
11965;DHT22;6042;41.326;19.826;2023-12-20T01:36:19;7.20;99.90
11965;DHT22;6042;41.326;19.826;2023-12-20T01:38:49;7.20;99.90
11965;DHT22;6042;41.326;19.826;2023-12-20T01:41:18;7.20;99.90
11965;DHT22;6042;41.326;19.826;2023-12-20T01:43:47;7.10;99.90
11965;DHT22;6042;41.326;19.826;2023-12-20T01:46:19;7.10;99.90
11965;DHT22;6042;41.326;19.826;2023-12-20T01:48:49;6.90;99.90
11965;DHT22;6042;41.326;19.826;2023-12-20T01:51:19;6.90;99.90
11965;DHT22;6042;41.326;19.826;2023-12-20T01:53:50;6.90;99.90
11965;DHT22;6042;41.326;19.826;2023-12-20T01:56:19;6.90;99.90
11965;DHT22;6042;41.326;19.826;2023-12-20T01:58:48;6.80;99.90
11965;DHT22;6042;41.326;19.826;2023-12-20T02:01:17;6.90;99.90
11965;DHT22;6042;41.326;19.826;2023-12-20T02:03:47;6.90;99.90
11965;DHT22;6042;41.326;19.826;2023-12-20T02:06:18;6.90;99.90
11965;DHT22;6042;41.326;19.826;2023-12-20T02:08:47;6.90;99.90
11965;DHT22;6042;41.326;19.826;2023-12-20T02:11:19;6.90;99.90
11965;DHT22;6042;41.326;19.826;2023-12-20T02:13:49;6.90;99.90
11965;DHT22;6042;41.326;19.826;2023-12-20T02:16:18;6.90;99.90
11965;DHT22;6042;41.326;19.826;2023-12-20T02:18:47;6.90;99.90
11965;DHT22;6042;41.326;19.826;2023-12-20T02:21:16;7.00;99.90
11965;DHT22;6042;41.326;19.826;2023-12-20T02:23:47;7.20;99.90
11965;DHT22;6042;41.326;19.826;2023-12-20T02:26:16;7.30;99.90
11965;DHT22;6042;41.326;19.826;2023-12-20T02:28:48;7.50;99.90
11965;DHT22;6042;41.326;19.826;2023-12-20T02:31:17;7.50;99.90
11965;DHT22;6042;41.326;19.826;2023-12-20T02:33:49;7.30;99.90
11965;DHT22;6042;41.326;19.826;2023-12-20T02:36:18;7.30;99.90
11965;DHT22;6042;41.326;19.826;2023-12-20T02:38:48;7.30;99.90
11965;DHT22;6042;41.326;19.826;2023-12-20T02:41:18;7.40;99.90
11965;DHT22;6042;41.326;19.826;2023-12-20T02:43:48;7.40;99.90
11965;DHT22;6042;41.326;19.826;2023-12-20T02:46:17;7.50;99.90
11965;DHT22;6042;41.326;19.826;2023-12-20T02:48:47;7.50;99.90
11965;DHT22;6042;41.326;19.826;2023-12-20T02:51:16;7.50;99.90
11965;DHT22;6042;41.326;19.826;2023-12-20T02:53:45;7.50;99.90
11965;DHT22;6042;41.326;19.826;2023-12-20T02:56:15;7.40;99.90
11965;DHT22;6042;41.326;19.826;2023-12-20T02:58:44;7.50;99.90
11965;DHT22;6042;41.326;19.826;2023-12-20T03:01:13;7.60;99.90
11965;DHT22;6042;41.326;19.826;2023-12-20T03:03:42;7.70;99.90
11965;DHT22;6042;41.326;19.826;2023-12-20T03:06:12;7.70;99.90
11965;DHT22;6042;41.326;19.826;2023-12-20T03:08:44;7.70;99.90
11965;DHT22;6042;41.326;19.826;2023-12-20T03:11:14;7.70;99.90
11965;DHT22;6042;41.326;19.826;2023-12-20T03:13:43;7.70;99.90
11965;DHT22;6042;41.326;19.826;2023-12-20T03:16:13;7.60;99.90
11965;DHT22;6042;41.326;19.826;2023-12-20T03:18:44;7.60;99.90
11965;DHT22;6042;41.326;19.826;2023-12-20T03:21:13;7.60;99.90
11965;DHT22;6042;41.326;19.826;2023-12-20T03:23:42;7.60;99.90
11965;DHT22;6042;41.326;19.826;2023-12-20T03:26:11;7.60;99.90
11965;DHT22;6042;41.326;19.826;2023-12-20T03:28:43;7.60;99.90
11965;DHT22;6042;41.326;19.826;2023-12-20T03:31:13;7.60;99.90
11965;DHT22;6042;41.326;19.826;2023-12-20T03:33:42;7.70;99.90
11965;DHT22;6042;41.326;19.826;2023-12-20T03:36:11;7.70;99.90
11965;DHT22;6042;41.326;19.826;2023-12-20T03:38:40;7.80;99.90
11965;DHT22;6042;41.326;19.826;2023-12-20T03:41:09;7.60;99.90
11965;DHT22;6042;41.326;19.826;2023-12-20T03:43:38;7.50;99.90
11965;DHT22;6042;41.326;19.826;2023-12-20T03:46:09;7.70;99.90
11965;DHT22;6042;41.326;19.826;2023-12-20T03:48:39;7.90;99.90
11965;DHT22;6042;41.326;19.826;2023-12-20T03:51:08;7.80;99.90
11965;DHT22;6042;41.326;19.826;2023-12-20T03:53:37;7.90;99.90
11965;DHT22;6042;41.326;19.826;2023-12-20T03:56:08;7.90;99.90
11965;DHT22;6042;41.326;19.826;2023-12-20T03:58:36;8.10;99.90
11965;DHT22;6042;41.326;19.826;2023-12-20T04:01:10;8.10;99.90
11965;DHT22;6042;41.326;19.826;2023-12-20T04:03:41;8.10;99.90
11965;DHT22;6042;41.326;19.826;2023-12-20T04:06:10;8.10;99.90
11965;DHT22;6042;41.326;19.826;2023-12-20T04:08:39;8.10;99.90
11965;DHT22;6042;41.326;19.826;2023-12-20T04:11:08;8.00;99.90
11965;DHT22;6042;41.326;19.826;2023-12-20T04:13:37;8.00;99.90
11965;DHT22;6042;41.326;19.826;2023-12-20T04:16:06;8.00;99.90
11965;DHT22;6042;41.326;19.826;2023-12-20T04:18:36;7.90;99.90
11965;DHT22;6042;41.326;19.826;2023-12-20T04:21:05;7.80;99.90
11965;DHT22;6042;41.326;19.826;2023-12-20T04:23:34;7.80;99.90
11965;DHT22;6042;41.326;19.826;2023-12-20T04:26:04;7.90;99.90
11965;DHT22;6042;41.326;19.826;2023-12-20T04:28:33;7.90;99.90
11965;DHT22;6042;41.326;19.826;2023-12-20T04:31:02;7.90;99.90
11965;DHT22;6042;41.326;19.826;2023-12-20T04:33:32;7.80;99.90
11965;DHT22;6042;41.326;19.826;2023-12-20T04:36:03;7.70;99.90
11965;DHT22;6042;41.326;19.826;2023-12-20T04:38:32;7.60;99.90
11965;DHT22;6042;41.326;19.826;2023-12-20T04:41:01;7.40;99.90
11965;DHT22;6042;41.326;19.826;2023-12-20T04:43:30;7.30;99.90
11965;DHT22;6042;41.326;19.826;2023-12-20T04:45:59;7.20;99.90
11965;DHT22;6042;41.326;19.826;2023-12-20T04:48:30;7.20;99.90
11965;DHT22;6042;41.326;19.826;2023-12-20T04:50:59;7.20;99.90
11965;DHT22;6042;41.326;19.826;2023-12-20T04:53:29;7.10;99.90
11965;DHT22;6042;41.326;19.826;2023-12-20T04:56:00;7.30;99.90
11965;DHT22;6042;41.326;19.826;2023-12-20T04:58:31;7.20;99.90
11965;DHT22;6042;41.326;19.826;2023-12-20T05:01:00;6.90;99.90
11965;DHT22;6042;41.326;19.826;2023-12-20T05:03:30;7.00;99.90
11965;DHT22;6042;41.326;19.826;2023-12-20T05:05:59;7.10;99.90
11965;DHT22;6042;41.326;19.826;2023-12-20T05:08:42;6.80;99.90
11965;DHT22;6042;41.326;19.826;2023-12-20T05:11:34;6.80;99.90
11965;DHT22;6042;41.326;19.826;2023-12-20T05:14:04;6.70;99.90
11965;DHT22;6042;41.326;19.826;2023-12-20T05:16:35;6.70;99.90
11965;DHT22;6042;41.326;19.826;2023-12-20T05:19:04;6.60;99.90
11965;DHT22;6042;41.326;19.826;2023-12-20T05:21:34;6.60;99.90
11965;DHT22;6042;41.326;19.826;2023-12-20T05:24:05;6.60;99.90
11965;DHT22;6042;41.326;19.826;2023-12-20T05:26:37;6.60;99.90
11965;DHT22;6042;41.326;19.826;2023-12-20T05:29:09;6.60;99.90
11965;DHT22;6042;41.326;19.826;2023-12-20T05:31:38;6.60;99.90
11965;DHT22;6042;41.326;19.826;2023-12-20T05:34:07;6.60;99.90
11965;DHT22;6042;41.326;19.826;2023-12-20T05:36:36;6.70;99.90
11965;DHT22;6042;41.326;19.826;2023-12-20T05:39:08;6.70;99.90
11965;DHT22;6042;41.326;19.826;2023-12-20T05:41:37;6.70;99.90
11965;DHT22;6042;41.326;19.826;2023-12-20T05:44:06;6.60;99.90
11965;DHT22;6042;41.326;19.826;2023-12-20T05:46:37;6.70;99.90
11965;DHT22;6042;41.326;19.826;2023-12-20T05:49:08;6.60;99.90
11965;DHT22;6042;41.326;19.826;2023-12-20T05:51:37;6.70;99.90
11965;DHT22;6042;41.326;19.826;2023-12-20T05:54:09;6.70;99.90
11965;DHT22;6042;41.326;19.826;2023-12-20T05:56:39;6.70;99.90
11965;DHT22;6042;41.326;19.826;2023-12-20T05:59:08;6.70;99.90
11965;DHT22;6042;41.326;19.826;2023-12-20T06:01:38;6.70;99.90
11965;DHT22;6042;41.326;19.826;2023-12-20T06:04:11;6.70;99.90
11965;DHT22;6042;41.326;19.826;2023-12-20T06:06:44;6.70;99.90
11965;DHT22;6042;41.326;19.826;2023-12-20T06:09:17;6.70;99.90
11965;DHT22;6042;41.326;19.826;2023-12-20T06:11:48;6.70;99.90
11965;DHT22;6042;41.326;19.826;2023-12-20T06:14:24;6.80;99.90
11965;DHT22;6042;41.326;19.826;2023-12-20T06:16:54;6.80;99.90
11965;DHT22;6042;41.326;19.826;2023-12-20T06:19:23;6.60;99.90
11965;DHT22;6042;41.326;19.826;2023-12-20T06:21:52;6.70;99.90
11965;DHT22;6042;41.326;19.826;2023-12-20T06:24:22;6.80;99.90
11965;DHT22;6042;41.326;19.826;2023-12-20T06:26:55;6.70;99.90
11965;DHT22;6042;41.326;19.826;2023-12-20T06:29:24;6.80;99.90
11965;DHT22;6042;41.326;19.826;2023-12-20T06:31:54;6.90;99.90
11965;DHT22;6042;41.326;19.826;2023-12-20T06:34:23;7.00;99.90
11965;DHT22;6042;41.326;19.826;2023-12-20T06:36:52;7.00;99.90
11965;DHT22;6042;41.326;19.826;2023-12-20T06:39:22;7.10;99.90
11965;DHT22;6042;41.326;19.826;2023-12-20T06:41:51;7.20;99.90
11965;DHT22;6042;41.326;19.826;2023-12-20T06:44:20;7.30;99.90
11965;DHT22;6042;41.326;19.826;2023-12-20T06:46:49;7.30;99.90
11965;DHT22;6042;41.326;19.826;2023-12-20T06:49:18;7.30;99.90
11965;DHT22;6042;41.326;19.826;2023-12-20T06:51:48;7.40;99.90
11965;DHT22;6042;41.326;19.826;2023-12-20T06:54:17;7.50;99.90
11965;DHT22;6042;41.326;19.826;2023-12-20T06:56:48;7.60;99.90
11965;DHT22;6042;41.326;19.826;2023-12-20T06:59:17;7.70;99.90
11965;DHT22;6042;41.326;19.826;2023-12-20T07:01:48;7.70;99.90
11965;DHT22;6042;41.326;19.826;2023-12-20T07:04:18;7.70;99.90
11965;DHT22;6042;41.326;19.826;2023-12-20T07:06:49;7.70;99.90
11965;DHT22;6042;41.326;19.826;2023-12-20T07:09:19;7.80;99.90
11965;DHT22;6042;41.326;19.826;2023-12-20T07:11:50;7.80;99.90
11965;DHT22;6042;41.326;19.826;2023-12-20T07:14:19;7.90;99.90
11965;DHT22;6042;41.326;19.826;2023-12-20T07:16:51;7.90;99.90
11965;DHT22;6042;41.326;19.826;2023-12-20T07:19:20;8.00;99.90
11965;DHT22;6042;41.326;19.826;2023-12-20T07:21:50;8.10;99.90
11965;DHT22;6042;41.326;19.826;2023-12-20T07:24:19;8.20;99.90
11965;DHT22;6042;41.326;19.826;2023-12-20T07:26:50;8.30;99.90
11965;DHT22;6042;41.326;19.826;2023-12-20T07:29:19;8.30;99.90
11965;DHT22;6042;41.326;19.826;2023-12-20T07:31:48;8.50;99.90
11965;DHT22;6042;41.326;19.826;2023-12-20T07:34:19;8.50;99.90
11965;DHT22;6042;41.326;19.826;2023-12-20T07:36:48;8.30;99.90
11965;DHT22;6042;41.326;19.826;2023-12-20T07:39:17;8.50;99.90
11965;DHT22;6042;41.326;19.826;2023-12-20T07:41:47;8.70;99.90
11965;DHT22;6042;41.326;19.826;2023-12-20T07:44:17;8.50;99.90
11965;DHT22;6042;41.326;19.826;2023-12-20T07:46:46;8.80;99.90
11965;DHT22;6042;41.326;19.826;2023-12-20T07:49:16;8.90;99.90
11965;DHT22;6042;41.326;19.826;2023-12-20T07:51:46;8.90;99.90
11965;DHT22;6042;41.326;19.826;2023-12-20T07:54:15;8.90;99.90
11965;DHT22;6042;41.326;19.826;2023-12-20T07:56:45;9.20;99.90
11965;DHT22;6042;41.326;19.826;2023-12-20T07:59:16;9.20;99.90
11965;DHT22;6042;41.326;19.826;2023-12-20T08:02:01;9.20;99.90
11965;DHT22;6042;41.326;19.826;2023-12-20T08:04:30;9.50;99.90
11965;DHT22;6042;41.326;19.826;2023-12-20T08:07:01;9.60;99.90
11965;DHT22;6042;41.326;19.826;2023-12-20T08:09:30;9.70;99.90
11965;DHT22;6042;41.326;19.826;2023-12-20T08:12:01;9.90;99.90
11965;DHT22;6042;41.326;19.826;2023-12-20T08:14:31;10.00;99.90
11965;DHT22;6042;41.326;19.826;2023-12-20T08:17:02;9.90;99.90
11965;DHT22;6042;41.326;19.826;2023-12-20T08:19:31;10.00;99.90
11965;DHT22;6042;41.326;19.826;2023-12-20T08:22:01;10.20;99.90
11965;DHT22;6042;41.326;19.826;2023-12-20T08:24:30;10.10;99.90
11965;DHT22;6042;41.326;19.826;2023-12-20T08:26:59;10.30;99.90
11965;DHT22;6042;41.326;19.826;2023-12-20T08:29:30;10.50;99.90
11965;DHT22;6042;41.326;19.826;2023-12-20T08:31:59;10.50;99.90
11965;DHT22;6042;41.326;19.826;2023-12-20T08:34:30;10.40;99.90
11965;DHT22;6042;41.326;19.826;2023-12-20T08:36:59;10.60;99.90
11965;DHT22;6042;41.326;19.826;2023-12-20T08:39:28;10.90;99.90
11965;DHT22;6042;41.326;19.826;2023-12-20T08:41:59;10.70;99.90
11965;DHT22;6042;41.326;19.826;2023-12-20T08:44:32;10.80;99.90
11965;DHT22;6042;41.326;19.826;2023-12-20T08:47:03;11.10;99.90
11965;DHT22;6042;41.326;19.826;2023-12-20T08:49:34;10.80;99.90
11965;DHT22;6042;41.326;19.826;2023-12-20T08:52:05;11.00;99.90
11965;DHT22;6042;41.326;19.826;2023-12-20T08:54:34;11.30;99.90
11965;DHT22;6042;41.326;19.826;2023-12-20T08:57:04;11.10;99.90
11965;DHT22;6042;41.326;19.826;2023-12-20T08:59:36;11.30;99.90
11965;DHT22;6042;41.326;19.826;2023-12-20T09:02:05;11.50;99.90
11965;DHT22;6042;41.326;19.826;2023-12-20T09:04:34;11.40;99.90
11965;DHT22;6042;41.326;19.826;2023-12-20T09:07:03;11.40;99.90
11965;DHT22;6042;41.326;19.826;2023-12-20T09:09:32;11.60;99.90
11965;DHT22;6042;41.326;19.826;2023-12-20T09:12:01;11.70;99.60
11965;DHT22;6042;41.326;19.826;2023-12-20T09:14:30;11.70;99.60
11965;DHT22;6042;41.326;19.826;2023-12-20T09:17:00;11.90;99.80
11965;DHT22;6042;41.326;19.826;2023-12-20T09:19:30;12.10;99.10
11965;DHT22;6042;41.326;19.826;2023-12-20T09:22:00;11.90;99.20
11965;DHT22;6042;41.326;19.826;2023-12-20T09:24:30;12.10;99.30
11965;DHT22;6042;41.326;19.826;2023-12-20T09:27:01;12.40;98.90
11965;DHT22;6042;41.326;19.826;2023-12-20T09:29:30;12.10;99.20
11965;DHT22;6042;41.326;19.826;2023-12-20T09:32:01;12.20;99.30
11965;DHT22;6042;41.326;19.826;2023-12-20T09:34:30;12.50;99.00
11965;DHT22;6042;41.326;19.826;2023-12-20T09:36:59;12.30;99.20
11965;DHT22;6042;41.326;19.826;2023-12-20T09:39:33;12.40;98.90
11965;DHT22;6042;41.326;19.826;2023-12-20T09:42:03;12.60;98.90
11965;DHT22;6042;41.326;19.826;2023-12-20T09:44:33;12.40;97.90
11965;DHT22;6042;41.326;19.826;2023-12-20T09:47:07;12.50;98.40
11965;DHT22;6042;41.326;19.826;2023-12-20T09:49:37;12.70;98.20
11965;DHT22;6042;41.326;19.826;2023-12-20T09:52:08;12.60;97.90
11965;DHT22;6042;41.326;19.826;2023-12-20T09:54:39;12.80;97.70
11965;DHT22;6042;41.326;19.826;2023-12-20T09:57:09;12.90;97.50
11965;DHT22;6042;41.326;19.826;2023-12-20T09:59:40;12.80;98.00
11965;DHT22;6042;41.326;19.826;2023-12-20T10:02:13;12.90;98.40
11965;DHT22;6042;41.326;19.826;2023-12-20T10:04:47;13.10;97.90
11965;DHT22;6042;41.326;19.826;2023-12-20T10:07:18;12.90;98.10
11965;DHT22;6042;41.326;19.826;2023-12-20T10:09:48;13.00;98.50
11965;DHT22;6042;41.326;19.826;2023-12-20T10:12:17;13.30;98.90
11965;DHT22;6042;41.326;19.826;2023-12-20T10:14:48;13.10;99.40
11965;DHT22;6042;41.326;19.826;2023-12-20T10:17:21;13.30;99.90
11965;DHT22;6042;41.326;19.826;2023-12-20T10:19:52;13.50;99.90
11965;DHT22;6042;41.326;19.826;2023-12-20T10:22:22;13.40;99.90
11965;DHT22;6042;41.326;19.826;2023-12-20T10:24:51;13.50;99.90
11965;DHT22;6042;41.326;19.826;2023-12-20T10:27:20;13.80;99.90
11965;DHT22;6042;41.326;19.826;2023-12-20T10:29:49;13.90;99.90
11965;DHT22;6042;41.326;19.826;2023-12-20T10:32:27;13.90;99.90
11965;DHT22;6042;41.326;19.826;2023-12-20T10:34:58;14.10;99.90
11965;DHT22;6042;41.326;19.826;2023-12-20T10:37:28;14.00;99.90
11965;DHT22;6042;41.326;19.826;2023-12-20T10:39:59;14.00;99.90
11965;DHT22;6042;41.326;19.826;2023-12-20T10:42:35;14.20;99.90
11965;DHT22;6042;41.326;19.826;2023-12-20T10:45:05;14.10;99.90
11965;DHT22;6042;41.326;19.826;2023-12-20T10:47:36;14.20;99.90
11965;DHT22;6042;41.326;19.826;2023-12-20T10:50:09;14.40;99.90
11965;DHT22;6042;41.326;19.826;2023-12-20T10:52:39;14.40;99.90
11965;DHT22;6042;41.326;19.826;2023-12-20T10:55:09;14.50;99.90
11965;DHT22;6042;41.326;19.826;2023-12-20T10:57:38;14.70;99.90
11965;DHT22;6042;41.326;19.826;2023-12-20T11:00:11;14.60;99.90
11965;DHT22;6042;41.326;19.826;2023-12-20T11:02:45;14.70;99.90
11965;DHT22;6042;41.326;19.826;2023-12-20T11:05:23;14.90;99.90
11965;DHT22;6042;41.326;19.826;2023-12-20T11:07:59;14.80;99.90
11965;DHT22;6042;41.326;19.826;2023-12-20T11:10:34;15.00;99.90
11965;DHT22;6042;41.326;19.826;2023-12-20T11:13:09;15.20;99.90
11965;DHT22;6042;41.326;19.826;2023-12-20T11:15:40;15.30;99.90
11965;DHT22;6042;41.326;19.826;2023-12-20T11:18:11;15.30;99.90
11965;DHT22;6042;41.326;19.826;2023-12-20T11:20:41;15.60;99.90
11965;DHT22;6042;41.326;19.826;2023-12-20T11:23:11;15.80;99.90
11965;DHT22;6042;41.326;19.826;2023-12-20T11:25:47;15.90;99.90
11965;DHT22;6042;41.326;19.826;2023-12-20T11:28:21;15.90;99.90
11965;DHT22;6042;41.326;19.826;2023-12-20T11:30:51;16.00;99.90
11965;DHT22;6042;41.326;19.826;2023-12-20T11:33:26;16.00;99.90
11965;DHT22;6042;41.326;19.826;2023-12-20T11:35:58;16.20;99.90
11965;DHT22;6042;41.326;19.826;2023-12-20T11:38:32;16.30;99.90
11965;DHT22;6042;41.326;19.826;2023-12-20T11:41:06;16.30;99.90
11965;DHT22;6042;41.326;19.826;2023-12-20T11:43:39;16.30;99.90
11965;DHT22;6042;41.326;19.826;2023-12-20T11:46:12;16.40;99.90
11965;DHT22;6042;41.326;19.826;2023-12-20T11:48:46;16.50;98.70
11965;DHT22;6042;41.326;19.826;2023-12-20T11:51:20;16.50;98.50
11965;DHT22;6042;41.326;19.826;2023-12-20T11:53:52;16.60;98.50
11965;DHT22;6042;41.326;19.826;2023-12-20T11:56:21;16.70;98.60
11965;DHT22;6042;41.326;19.826;2023-12-20T11:58:50;16.60;98.20
11965;DHT22;6042;41.326;19.826;2023-12-20T12:01:20;16.50;97.90
11965;DHT22;6042;41.326;19.826;2023-12-20T12:04:02;16.60;98.40
11965;DHT22;6042;41.326;19.826;2023-12-20T12:06:32;16.60;98.50
11965;DHT22;6042;41.326;19.826;2023-12-20T12:09:01;16.60;98.80
11965;DHT22;6042;41.326;19.826;2023-12-20T12:11:31;16.50;98.90
11965;DHT22;6042;41.326;19.826;2023-12-20T12:14:00;16.50;99.20
11965;DHT22;6042;41.326;19.826;2023-12-20T12:16:30;16.60;98.60
11965;DHT22;6042;41.326;19.826;2023-12-20T12:19:00;16.50;98.90
11965;DHT22;6042;41.326;19.826;2023-12-20T12:21:29;16.30;99.30
11965;DHT22;6042;41.326;19.826;2023-12-20T12:24:07;16.20;99.40
11965;DHT22;6042;41.326;19.826;2023-12-20T12:26:37;16.10;99.70
11965;DHT22;6042;41.326;19.826;2023-12-20T12:29:08;16.00;99.90
11965;DHT22;6042;41.326;19.826;2023-12-20T12:31:37;16.10;99.60
11965;DHT22;6042;41.326;19.826;2023-12-20T12:34:07;16.10;99.70
11965;DHT22;6042;41.326;19.826;2023-12-20T12:36:38;16.00;99.90
11965;DHT22;6042;41.326;19.826;2023-12-20T12:39:08;15.90;99.90
11965;DHT22;6042;41.326;19.826;2023-12-20T12:41:37;16.00;99.90
11965;DHT22;6042;41.326;19.826;2023-12-20T12:44:06;15.90;99.90
11965;DHT22;6042;41.326;19.826;2023-12-20T12:46:44;15.70;99.90
11965;DHT22;6042;41.326;19.826;2023-12-20T12:49:18;15.60;99.90
11965;DHT22;6042;41.326;19.826;2023-12-20T12:51:49;15.60;99.90
11965;DHT22;6042;41.326;19.826;2023-12-20T12:54:19;15.40;99.90
11965;DHT22;6042;41.326;19.826;2023-12-20T12:56:53;15.40;99.90
11965;DHT22;6042;41.326;19.826;2023-12-20T12:59:23;15.50;99.90
11965;DHT22;6042;41.326;19.826;2023-12-20T13:01:53;15.30;99.90
11965;DHT22;6042;41.326;19.826;2023-12-20T13:04:23;15.40;99.90
11965;DHT22;6042;41.326;19.826;2023-12-20T13:06:52;15.40;99.90
11965;DHT22;6042;41.326;19.826;2023-12-20T13:09:25;15.30;99.90
11965;DHT22;6042;41.326;19.826;2023-12-20T13:11:54;15.30;99.90
11965;DHT22;6042;41.326;19.826;2023-12-20T13:14:23;15.10;99.90
11965;DHT22;6042;41.326;19.826;2023-12-20T13:16:52;15.10;99.90
11965;DHT22;6042;41.326;19.826;2023-12-20T13:19:21;15.10;99.90
11965;DHT22;6042;41.326;19.826;2023-12-20T13:21:51;15.10;99.90
11965;DHT22;6042;41.326;19.826;2023-12-20T13:24:20;15.00;99.90
11965;DHT22;6042;41.326;19.826;2023-12-20T13:26:49;15.00;99.90
11965;DHT22;6042;41.326;19.826;2023-12-20T13:29:18;14.90;99.90
11965;DHT22;6042;41.326;19.826;2023-12-20T13:31:48;15.00;99.90
11965;DHT22;6042;41.326;19.826;2023-12-20T13:34:16;14.90;99.90
11965;DHT22;6042;41.326;19.826;2023-12-20T13:36:45;15.00;99.90
11965;DHT22;6042;41.326;19.826;2023-12-20T13:39:19;14.90;99.90
11965;DHT22;6042;41.326;19.826;2023-12-20T13:41:48;14.90;99.90
11965;DHT22;6042;41.326;19.826;2023-12-20T13:44:19;14.90;99.90
11965;DHT22;6042;41.326;19.826;2023-12-20T13:46:49;14.80;99.90
11965;DHT22;6042;41.326;19.826;2023-12-20T13:49:18;14.80;99.90
11965;DHT22;6042;41.326;19.826;2023-12-20T13:51:50;14.80;99.90
11965;DHT22;6042;41.326;19.826;2023-12-20T13:54:22;14.70;99.90
11965;DHT22;6042;41.326;19.826;2023-12-20T13:56:51;14.70;99.90
11965;DHT22;6042;41.326;19.826;2023-12-20T13:59:39;14.70;99.90
11965;DHT22;6042;41.326;19.826;2023-12-20T14:02:09;14.60;99.90
11965;DHT22;6042;41.326;19.826;2023-12-20T14:04:38;14.60;99.90
11965;DHT22;6042;41.326;19.826;2023-12-20T14:07:14;14.60;99.90
11965;DHT22;6042;41.326;19.826;2023-12-20T14:09:45;14.60;99.90
11965;DHT22;6042;41.326;19.826;2023-12-20T14:12:15;14.50;99.90
11965;DHT22;6042;41.326;19.826;2023-12-20T14:14:54;14.50;99.90
11965;DHT22;6042;41.326;19.826;2023-12-20T14:17:32;14.50;99.90
11965;DHT22;6042;41.326;19.826;2023-12-20T14:20:08;14.40;99.90
11965;DHT22;6042;41.326;19.826;2023-12-20T14:25:14;14.30;99.90
11965;DHT22;6042;41.326;19.826;2023-12-20T14:27:44;14.30;99.90
11965;DHT22;6042;41.326;19.826;2023-12-20T14:30:15;14.10;99.90
11965;DHT22;6042;41.326;19.826;2023-12-20T14:35:25;13.80;99.90
11965;DHT22;6042;41.326;19.826;2023-12-20T14:37:56;13.80;99.90
11965;DHT22;6042;41.326;19.826;2023-12-20T14:40:24;14.00;99.90
11965;DHT22;6042;41.326;19.826;2023-12-20T14:42:51;14.00;99.90
11965;DHT22;6042;41.326;19.826;2023-12-20T14:45:19;13.80;99.90
11965;DHT22;6042;41.326;19.826;2023-12-20T14:47:47;13.80;99.90
11965;DHT22;6042;41.326;19.826;2023-12-20T14:50:17;13.70;99.90
11965;DHT22;6042;41.326;19.826;2023-12-20T14:52:48;13.60;99.90
11965;DHT22;6042;41.326;19.826;2023-12-20T14:55:19;13.60;99.90
11965;DHT22;6042;41.326;19.826;2023-12-20T14:57:48;13.70;99.90
11965;DHT22;6042;41.326;19.826;2023-12-20T15:00:18;13.60;99.90
11965;DHT22;6042;41.326;19.826;2023-12-20T15:02:48;13.60;99.90
11965;DHT22;6042;41.326;19.826;2023-12-20T15:05:17;13.50;99.90
11965;DHT22;6042;41.326;19.826;2023-12-20T15:07:48;13.30;99.90
11965;DHT22;6042;41.326;19.826;2023-12-20T15:10:17;13.20;99.90
11965;DHT22;6042;41.326;19.826;2023-12-20T15:12:46;13.20;99.90
11965;DHT22;6042;41.326;19.826;2023-12-20T15:15:15;13.10;99.90
11965;DHT22;6042;41.326;19.826;2023-12-20T15:17:45;12.60;99.90
11965;DHT22;6042;41.326;19.826;2023-12-20T15:20:15;12.40;99.90
11965;DHT22;6042;41.326;19.826;2023-12-20T15:22:47;12.20;99.90
11965;DHT22;6042;41.326;19.826;2023-12-20T15:25:17;12.20;99.90
11965;DHT22;6042;41.326;19.826;2023-12-20T15:27:49;11.90;99.90
11965;DHT22;6042;41.326;19.826;2023-12-20T15:30:22;11.70;99.90
11965;DHT22;6042;41.326;19.826;2023-12-20T15:32:52;11.60;99.90
11965;DHT22;6042;41.326;19.826;2023-12-20T15:35:22;11.40;99.90
11965;DHT22;6042;41.326;19.826;2023-12-20T15:37:52;11.20;99.90
11965;DHT22;6042;41.326;19.826;2023-12-20T15:40:24;11.10;99.90
11965;DHT22;6042;41.326;19.826;2023-12-20T15:42:53;11.00;99.90
11965;DHT22;6042;41.326;19.826;2023-12-20T15:45:26;11.00;99.90
11965;DHT22;6042;41.326;19.826;2023-12-20T15:48:00;10.90;99.90
11965;DHT22;6042;41.326;19.826;2023-12-20T15:50:31;10.90;99.90
11965;DHT22;6042;41.326;19.826;2023-12-20T15:53:02;10.80;99.90
11965;DHT22;6042;41.326;19.826;2023-12-20T15:55:31;10.80;99.90
11965;DHT22;6042;41.326;19.826;2023-12-20T15:58:01;10.80;99.90
11965;DHT22;6042;41.326;19.826;2023-12-20T16:00:30;10.70;99.90
11965;DHT22;6042;41.326;19.826;2023-12-20T16:02:59;10.70;99.90